createdAt,value
2022-10-30T00:00:43.982Z,17.27
2022-10-30T00:03:12.068Z,17.30
2022-10-30T00:05:40.893Z,17.32
2022-10-30T00:08:07.643Z,17.23
2022-10-30T00:10:34.722Z,17.23
2022-10-30T00:13:02.659Z,17.31
2022-10-30T00:15:29.345Z,17.23
2022-10-30T00:17:56.306Z,16.94
2022-10-30T00:20:23.225Z,17.11
2022-10-30T00:22:49.962Z,17.21
2022-10-30T00:25:16.862Z,17.14
2022-10-30T00:27:43.521Z,16.86
2022-10-30T00:30:10.678Z,16.82
2022-10-30T00:32:37.348Z,16.77
2022-10-30T00:35:04.692Z,16.84
2022-10-30T00:37:31.342Z,16.88
2022-10-30T00:39:58.022Z,16.73
2022-10-30T00:42:29.482Z,16.82
2022-10-30T00:44:56.213Z,16.84
2022-10-30T00:47:25.972Z,17.04
2022-10-30T00:50:11.542Z,17.06
2022-10-30T00:52:43.192Z,17.10
2022-10-30T00:55:12.093Z,17.10
2022-10-30T00:57:39.809Z,17.20
2022-10-30T01:00:07.892Z,17.23
2022-10-30T01:02:34.729Z,17.40
2022-10-30T01:05:02.088Z,17.42
2022-10-30T01:07:28.799Z,17.39
2022-10-30T01:09:55.532Z,17.49
2022-10-30T01:12:22.233Z,17.37
2022-10-30T01:14:53.550Z,17.15
2022-10-30T01:17:23.043Z,17.01
2022-10-30T01:19:58.893Z,16.35
2022-10-30T01:22:25.591Z,16.68
2022-10-30T01:24:52.272Z,16.90
2022-10-30T01:27:28.142Z,17.17
2022-10-30T01:30:16.024Z,17.03
2022-10-30T01:33:06.128Z,16.95
2022-10-30T01:35:37.922Z,16.74
2022-10-30T01:38:10.502Z,16.62
2022-10-30T01:40:37.402Z,16.77
2022-10-30T01:43:04.342Z,16.87
2022-10-30T01:45:43.373Z,16.64
2022-10-30T01:48:36.461Z,16.05
2022-10-30T01:51:03.114Z,16.15
2022-10-30T01:53:36.721Z,16.37
2022-10-30T01:56:06.331Z,16.50
2022-10-30T01:58:54.672Z,16.55
2022-10-30T02:01:21.716Z,16.77
2022-10-30T02:03:49.102Z,16.84
2022-10-30T02:06:15.873Z,17.07
2022-10-30T02:08:42.555Z,17.16
2022-10-30T02:11:10.154Z,17.05
2022-10-30T02:13:37.167Z,17.09
2022-10-30T02:16:03.973Z,17.03
2022-10-30T02:18:30.755Z,17.12
2022-10-30T02:20:57.613Z,17.26
2022-10-30T02:23:24.391Z,17.31
2022-10-30T02:25:51.075Z,17.33
2022-10-30T02:28:17.721Z,17.36
2022-10-30T02:30:44.411Z,17.34
2022-10-30T02:33:11.440Z,17.24
2022-10-30T02:35:38.211Z,17.33
2022-10-30T02:38:04.854Z,17.32
2022-10-30T02:40:31.695Z,17.36
2022-10-30T02:42:58.435Z,17.33
2022-10-30T02:45:25.192Z,17.38
2022-10-30T02:47:51.912Z,17.44
2022-10-30T02:50:18.711Z,16.69
2022-10-30T02:52:45.474Z,17.13
2022-10-30T02:55:12.193Z,16.08
2022-10-30T02:57:38.891Z,16.58
2022-10-30T03:00:08.721Z,16.73
2022-10-30T03:02:35.703Z,16.96
2022-10-30T03:05:02.626Z,17.12
2022-10-30T03:07:29.422Z,16.93
2022-10-30T03:09:56.313Z,17.15
2022-10-30T03:12:23.239Z,17.23
2022-10-30T03:14:50.006Z,17.17
2022-10-30T03:17:16.912Z,17.17
2022-10-30T03:19:43.725Z,17.22
2022-10-30T03:22:10.543Z,17.08
2022-10-30T03:24:38.441Z,17.24
2022-10-30T03:27:05.244Z,16.90
2022-10-30T03:29:32.108Z,17.12
2022-10-30T03:31:58.913Z,17.30
2022-10-30T03:34:25.763Z,17.17
2022-10-30T03:36:52.532Z,17.16
2022-10-30T03:39:19.483Z,17.10
2022-10-30T03:41:46.241Z,17.30
2022-10-30T03:44:13.110Z,17.27
2022-10-30T03:46:39.812Z,17.15
2022-10-30T03:49:06.541Z,17.33
2022-10-30T03:51:33.252Z,17.19
2022-10-30T03:53:59.962Z,17.32
2022-10-30T03:56:26.612Z,17.14
2022-10-30T03:58:53.483Z,17.29
2022-10-30T04:01:20.275Z,17.20
2022-10-30T04:03:47.001Z,17.34
2022-10-30T04:06:13.762Z,17.43
2022-10-30T04:08:40.485Z,17.09
2022-10-30T04:11:09.693Z,17.09
2022-10-30T04:13:36.372Z,17.13
2022-10-30T04:16:03.132Z,17.16
2022-10-30T04:18:29.862Z,16.97
2022-10-30T04:20:56.533Z,17.05
2022-10-30T04:23:23.295Z,17.32
2022-10-30T04:25:49.964Z,17.08
2022-10-30T04:28:16.692Z,17.13
2022-10-30T04:30:43.671Z,17.00
2022-10-30T04:33:13.833Z,17.02
2022-10-30T04:35:41.475Z,17.05
2022-10-30T04:38:10.592Z,17.18
2022-10-30T04:40:38.210Z,16.79
2022-10-30T04:43:05.812Z,16.69
2022-10-30T04:45:32.522Z,16.30
2022-10-30T04:48:10.866Z,16.27
2022-10-30T04:50:38.311Z,16.30
2022-10-30T04:53:08.399Z,16.47
2022-10-30T04:55:35.112Z,15.34
2022-10-30T04:58:04.993Z,15.67
2022-10-30T05:00:32.054Z,15.70
2022-10-30T05:03:00.183Z,15.30
2022-10-30T05:05:27.232Z,15.66
2022-10-30T05:07:54.105Z,15.65
2022-10-30T05:10:20.833Z,15.91
2022-10-30T05:12:47.585Z,15.62
2022-10-30T05:15:14.663Z,14.82
2022-10-30T05:17:41.807Z,15.57
2022-10-30T05:20:08.713Z,15.24
2022-10-30T05:22:35.434Z,14.09
2022-10-30T05:25:02.123Z,14.17
2022-10-30T05:27:28.779Z,14.72
2022-10-30T05:29:55.482Z,15.11
2022-10-30T05:32:22.255Z,15.26
2022-10-30T05:34:48.913Z,14.89
2022-10-30T05:37:15.608Z,14.67
2022-10-30T05:39:42.272Z,14.56
2022-10-30T05:42:13.531Z,14.96
2022-10-30T05:44:59.792Z,15.06
2022-10-30T05:47:27.408Z,15.02
2022-10-30T05:49:54.083Z,15.57
2022-10-30T05:52:20.810Z,15.63
2022-10-30T05:54:47.513Z,15.21
2022-10-30T05:57:14.255Z,15.65
2022-10-30T05:59:40.992Z,15.91
2022-10-30T06:02:07.777Z,16.05
2022-10-30T06:04:34.521Z,16.05
2022-10-30T06:07:01.252Z,16.04
2022-10-30T06:09:27.932Z,16.19
2022-10-30T06:11:54.592Z,16.31
2022-10-30T06:14:21.612Z,16.41
2022-10-30T06:16:48.648Z,16.58
2022-10-30T06:19:18.394Z,16.58
2022-10-30T06:21:45.853Z,16.50
2022-10-30T06:24:12.603Z,16.61
2022-10-30T06:26:39.303Z,16.01
2022-10-30T06:29:06.007Z,15.66
2022-10-30T06:31:32.746Z,15.74
2022-10-30T06:33:59.500Z,15.49
2022-10-30T06:36:26.235Z,15.72
2022-10-30T06:38:53.012Z,16.11
2022-10-30T06:41:19.683Z,15.96
2022-10-30T06:43:46.390Z,15.58
2022-10-30T06:46:13.128Z,15.37
2022-10-30T06:48:39.982Z,14.22
2022-10-30T06:51:06.653Z,15.24
2022-10-30T06:53:33.602Z,15.15
2022-10-30T06:56:01.822Z,15.08
2022-10-30T06:58:28.997Z,15.24
2022-10-30T07:00:56.053Z,15.01
2022-10-30T07:03:22.803Z,14.91
2022-10-30T07:05:49.462Z,14.74
2022-10-30T07:08:16.254Z,15.29
2022-10-30T07:10:43.116Z,15.36
2022-10-30T07:13:09.942Z,15.48
2022-10-30T07:15:36.633Z,15.67
2022-10-30T07:18:04.146Z,15.04
2022-10-30T07:20:32.512Z,15.53
2022-10-30T07:22:59.221Z,15.22
2022-10-30T07:25:25.901Z,15.33
2022-10-30T07:27:53.365Z,15.14
2022-10-30T07:30:21.385Z,15.10
2022-10-30T07:32:57.027Z,15.18
2022-10-30T07:35:23.926Z,15.06
2022-10-30T07:37:50.656Z,14.77
2022-10-30T07:40:17.631Z,14.89
2022-10-30T07:42:44.338Z,14.84
2022-10-30T07:45:11.307Z,15.24
2022-10-30T07:47:41.805Z,14.62
2022-10-30T07:50:09.753Z,15.40
2022-10-30T07:52:36.423Z,15.22
2022-10-30T07:55:03.914Z,15.10
2022-10-30T07:57:37.253Z,15.45
2022-10-30T08:00:05.037Z,15.39
2022-10-30T08:02:32.090Z,15.77
2022-10-30T08:04:58.982Z,15.92
2022-10-30T08:07:29.672Z,16.15
2022-10-30T08:09:56.372Z,16.05
2022-10-30T08:12:23.022Z,16.12
2022-10-30T08:14:50.238Z,16.09
2022-10-30T08:17:17.022Z,16.37
2022-10-30T08:19:43.713Z,16.34
2022-10-30T08:22:10.911Z,16.62
2022-10-30T08:24:37.642Z,16.62
2022-10-30T08:27:04.902Z,16.82
2022-10-30T08:29:31.748Z,16.92
2022-10-30T08:31:58.422Z,17.01
2022-10-30T08:34:26.864Z,17.00
2022-10-30T08:36:53.873Z,17.09
2022-10-30T08:39:20.804Z,17.08
2022-10-30T08:41:50.392Z,17.20
2022-10-30T08:44:17.604Z,17.22
2022-10-30T08:46:44.492Z,17.02
2022-10-30T08:49:11.252Z,16.97
2022-10-30T08:51:38.545Z,17.11
2022-10-30T08:54:05.474Z,17.22
2022-10-30T08:56:32.254Z,17.00
2022-10-30T08:58:59.291Z,15.81
2022-10-30T09:01:26.156Z,16.63
2022-10-30T09:03:53.063Z,16.33
2022-10-30T09:06:19.813Z,15.70
2022-10-30T09:08:47.031Z,15.51
2022-10-30T09:11:14.004Z,15.02
2022-10-30T09:13:40.824Z,14.96
2022-10-30T09:16:07.843Z,14.96
2022-10-30T09:18:34.552Z,15.67
2022-10-30T09:21:04.587Z,15.83
2022-10-30T09:23:32.329Z,14.89
2022-10-30T09:25:59.115Z,14.51
2022-10-30T09:28:25.855Z,14.22
2022-10-30T09:30:56.583Z,15.37
2022-10-30T09:33:23.473Z,16.05
2022-10-30T09:35:50.212Z,16.19
2022-10-30T09:38:17.013Z,16.28
2022-10-30T09:40:59.023Z,16.47
2022-10-30T09:43:33.382Z,16.49
2022-10-30T09:46:38.967Z,16.67
2022-10-30T09:49:06.255Z,17.03
2022-10-30T09:51:48.280Z,17.12
2022-10-30T09:54:20.903Z,17.06
2022-10-30T09:57:01.200Z,17.43
2022-10-30T09:59:43.511Z,17.28
2022-10-30T10:02:22.392Z,17.24
2022-10-30T10:04:56.687Z,16.48
2022-10-30T10:07:23.402Z,16.53
2022-10-30T10:09:52.863Z,16.77
2022-10-30T10:12:20.051Z,15.96
2022-10-30T10:14:48.188Z,16.33
2022-10-30T10:17:20.393Z,16.62
2022-10-30T10:19:55.575Z,16.46
2022-10-30T10:23:01.407Z,16.88
2022-10-30T10:25:31.418Z,16.96
2022-10-30T10:27:58.212Z,17.11
2022-10-30T10:30:26.392Z,17.58
2022-10-30T10:33:12.024Z,17.15
2022-10-30T10:36:01.802Z,17.06
2022-10-30T10:38:34.479Z,16.94
2022-10-30T10:41:29.053Z,17.26
2022-10-30T10:43:55.752Z,16.19
2022-10-30T10:46:48.492Z,15.66
2022-10-30T10:49:18.062Z,16.49
2022-10-30T10:51:49.222Z,17.03
2022-10-30T10:54:22.692Z,16.93
2022-10-30T10:56:50.883Z,17.00
2022-10-30T10:59:23.103Z,17.25
2022-10-30T11:01:54.848Z,16.88
2022-10-30T11:04:21.594Z,16.57
2022-10-30T11:06:50.782Z,16.10
2022-10-30T11:09:22.250Z,16.21
2022-10-30T11:11:49.703Z,16.57
2022-10-30T11:14:21.143Z,17.03
2022-10-30T11:16:57.233Z,16.56
2022-10-30T11:19:25.273Z,17.03
2022-10-30T11:21:53.322Z,17.28
2022-10-30T11:24:31.070Z,17.69
2022-10-30T11:26:58.881Z,17.57
2022-10-30T11:29:30.068Z,17.64
2022-10-30T11:32:03.854Z,17.70
2022-10-30T11:34:35.114Z,17.89
2022-10-30T11:37:02.304Z,17.70
2022-10-30T11:39:34.285Z,17.90
2022-10-30T11:42:01.036Z,18.01
2022-10-30T11:44:32.672Z,17.82
2022-10-30T11:46:59.907Z,17.76
2022-10-30T11:49:30.833Z,17.90
2022-10-30T11:51:57.761Z,17.64
2022-10-30T11:54:24.801Z,17.60
2022-10-30T11:56:52.122Z,17.59
2022-10-30T11:59:20.185Z,17.52
2022-10-30T12:02:04.003Z,17.76
2022-10-30T12:04:33.230Z,17.71
2022-10-30T12:07:17.353Z,17.77
2022-10-30T12:09:44.752Z,18.02
2022-10-30T12:12:12.955Z,18.16
2022-10-30T12:14:39.761Z,18.27
2022-10-30T12:17:06.643Z,18.24
2022-10-30T12:19:33.484Z,18.47
2022-10-30T12:22:01.663Z,18.45
2022-10-30T12:24:32.364Z,18.37
2022-10-30T12:27:02.735Z,18.41
2022-10-30T12:30:07.238Z,18.21
2022-10-30T12:32:46.687Z,18.61
2022-10-30T12:35:36.197Z,18.21
2022-10-30T12:38:04.663Z,18.19
2022-10-30T12:40:33.455Z,18.28
2022-10-30T12:43:08.743Z,18.22
2022-10-30T12:45:43.831Z,18.44
2022-10-30T12:48:26.222Z,18.58
2022-10-30T12:51:16.022Z,18.19
2022-10-30T12:53:45.153Z,18.48
2022-10-30T12:56:19.572Z,18.61
2022-10-30T12:58:49.277Z,18.63
2022-10-30T13:01:17.552Z,18.67
2022-10-30T13:03:47.310Z,18.66
2022-10-30T13:06:17.697Z,18.58
2022-10-30T13:08:52.113Z,18.63
2022-10-30T13:11:21.853Z,18.51
2022-10-30T13:13:53.146Z,18.47
2022-10-30T13:16:22.924Z,18.60
2022-10-30T13:18:50.061Z,18.76
2022-10-30T13:21:32.146Z,18.94
2022-10-30T13:24:01.462Z,17.42
2022-10-30T13:26:34.813Z,17.59
2022-10-30T13:29:13.318Z,18.12
2022-10-30T13:31:40.205Z,17.88
2022-10-30T13:34:09.733Z,17.61
2022-10-30T13:36:56.702Z,17.61
2022-10-30T13:39:34.305Z,17.87
2022-10-30T13:42:17.067Z,17.57
2022-10-30T13:44:46.610Z,17.86
2022-10-30T13:47:32.414Z,18.09
2022-10-30T13:50:17.813Z,18.00
2022-10-30T13:52:48.547Z,17.63
2022-10-30T13:55:41.289Z,17.73
2022-10-30T13:58:14.049Z,17.90
2022-10-30T14:00:53.025Z,18.09
2022-10-30T14:03:38.753Z,18.09
2022-10-30T14:06:11.743Z,18.00
2022-10-30T14:08:38.476Z,18.05
2022-10-30T14:11:06.165Z,18.10
2022-10-30T14:13:36.073Z,18.23
2022-10-30T14:16:05.515Z,18.17
2022-10-30T14:18:32.266Z,18.19
2022-10-30T14:21:00.083Z,18.13
2022-10-30T14:23:36.669Z,18.35
2022-10-30T14:26:03.785Z,18.26
2022-10-30T14:28:33.645Z,18.21
2022-10-30T14:31:08.238Z,18.36
2022-10-30T14:33:41.056Z,18.26
2022-10-30T14:36:20.264Z,18.51
2022-10-30T14:39:07.279Z,18.27
2022-10-30T14:41:40.212Z,18.45
2022-10-30T14:44:25.853Z,18.52
2022-10-30T14:47:06.979Z,18.41
2022-10-30T14:49:52.643Z,18.03
2022-10-30T14:52:30.111Z,18.32
2022-10-30T14:55:09.503Z,18.42
2022-10-30T14:57:49.935Z,17.78
2022-10-30T15:00:22.824Z,17.84
2022-10-30T15:02:52.715Z,18.14
2022-10-30T15:05:31.947Z,18.21
2022-10-30T15:08:05.733Z,18.22
2022-10-30T15:10:33.525Z,18.12
2022-10-30T15:13:03.358Z,18.05
2022-10-30T15:15:30.733Z,17.96
2022-10-30T15:18:00.017Z,17.98
2022-10-30T15:20:28.802Z,18.00
2022-10-30T15:23:03.025Z,18.21
2022-10-30T15:25:38.733Z,18.16
2022-10-30T15:28:06.144Z,18.28
2022-10-30T15:30:32.827Z,18.13
2022-10-30T15:32:59.709Z,17.14
2022-10-30T15:35:27.802Z,17.60
2022-10-30T15:38:00.644Z,17.38
2022-10-30T15:40:28.025Z,17.01
2022-10-30T15:42:55.314Z,17.15
2022-10-30T15:45:24.163Z,17.18
2022-10-30T15:47:57.865Z,17.23
2022-10-30T15:50:24.883Z,17.28
2022-10-30T15:52:54.209Z,17.42
2022-10-30T15:55:24.320Z,17.15
2022-10-30T15:58:07.633Z,16.97
2022-10-30T16:00:35.853Z,16.53
2022-10-30T16:03:21.123Z,16.13
2022-10-30T16:05:47.972Z,15.20
2022-10-30T16:08:15.952Z,14.81
2022-10-30T16:10:44.374Z,15.19
2022-10-30T16:13:16.613Z,15.30
2022-10-30T16:15:44.055Z,15.57
2022-10-30T16:18:15.873Z,15.56
2022-10-30T16:20:44.133Z,15.75
2022-10-30T16:23:12.306Z,15.91
2022-10-30T16:25:45.910Z,16.15
2022-10-30T16:28:33.444Z,16.40
2022-10-30T16:31:05.152Z,16.20
2022-10-30T16:33:33.594Z,16.47
2022-10-30T16:36:01.624Z,16.47
2022-10-30T16:38:31.612Z,16.65
2022-10-30T16:40:58.453Z,16.14
2022-10-30T16:43:29.996Z,15.81
2022-10-30T16:46:14.993Z,15.50
2022-10-30T16:48:47.796Z,15.52
2022-10-30T16:51:16.405Z,15.60
2022-10-30T16:53:50.752Z,15.12
2022-10-30T16:56:31.134Z,14.94
2022-10-30T16:59:06.451Z,14.91
2022-10-30T17:01:33.509Z,14.32
2022-10-30T17:04:00.717Z,14.65
2022-10-30T17:06:29.737Z,15.13
2022-10-30T17:08:58.713Z,15.14
2022-10-30T17:11:35.733Z,14.82
2022-10-30T17:14:04.726Z,15.19
2022-10-30T17:16:32.638Z,15.01
2022-10-30T17:19:00.622Z,15.05
2022-10-30T17:21:38.598Z,15.18
2022-10-30T17:24:05.623Z,14.95
2022-10-30T17:26:37.107Z,14.93
2022-10-30T17:29:03.817Z,15.14
2022-10-30T17:31:42.653Z,15.33
2022-10-30T17:34:16.847Z,15.27
2022-10-30T17:36:45.174Z,15.62
2022-10-30T17:39:12.033Z,14.81
2022-10-30T17:41:39.099Z,15.26
2022-10-30T17:44:06.686Z,15.05
2022-10-30T17:46:33.616Z,14.99
2022-10-30T17:49:00.486Z,15.39
2022-10-30T17:51:27.243Z,15.26
2022-10-30T17:53:54.062Z,14.61
2022-10-30T17:56:25.708Z,14.86
2022-10-30T17:58:52.531Z,15.05
2022-10-30T18:01:21.894Z,15.16
2022-10-30T18:03:49.268Z,14.89
2022-10-30T18:06:17.738Z,15.13
2022-10-30T18:08:47.919Z,15.53
2022-10-30T18:11:20.115Z,15.14
2022-10-30T18:13:47.817Z,14.14
2022-10-30T18:16:15.532Z,14.29
2022-10-30T18:18:42.696Z,14.02
2022-10-30T18:21:14.383Z,14.25
2022-10-30T18:23:56.677Z,14.27
2022-10-30T18:26:27.095Z,14.11
2022-10-30T18:28:54.312Z,13.93
2022-10-30T18:31:22.892Z,14.40
2022-10-30T18:33:49.606Z,14.61
2022-10-30T18:36:17.453Z,14.64
2022-10-30T18:38:44.453Z,14.58
2022-10-30T18:41:18.556Z,14.96
2022-10-30T18:43:46.978Z,14.56
2022-10-30T18:46:14.683Z,14.84
2022-10-30T18:48:41.443Z,14.77
2022-10-30T18:51:18.422Z,14.74
2022-10-30T18:53:51.915Z,14.82
2022-10-30T18:56:22.855Z,14.29
2022-10-30T18:58:50.376Z,14.44
2022-10-30T19:01:19.547Z,14.51
2022-10-30T19:03:46.974Z,14.47
2022-10-30T19:06:15.105Z,14.20
2022-10-30T19:08:41.805Z,14.37
2022-10-30T19:11:10.903Z,13.99
2022-10-30T19:13:37.632Z,14.65
2022-10-30T19:16:04.454Z,14.85
2022-10-30T19:18:32.895Z,15.14
2022-10-30T19:21:10.317Z,15.25
2022-10-30T19:23:41.396Z,14.60
2022-10-30T19:26:08.357Z,14.75
2022-10-30T19:28:35.497Z,14.03
2022-10-30T19:31:02.323Z,13.95
2022-10-30T19:33:29.136Z,14.50
2022-10-30T19:36:04.937Z,14.20
2022-10-30T19:38:32.364Z,14.53
2022-10-30T19:40:59.243Z,14.90
2022-10-30T19:43:26.005Z,14.98
2022-10-30T19:45:58.980Z,15.10
2022-10-30T19:48:55.400Z,15.25
2022-10-30T19:51:12.808Z,15.43
2022-10-30T19:53:40.335Z,15.18
2022-10-30T19:56:07.622Z,15.58
2022-10-30T19:58:34.364Z,15.43
2022-10-30T20:01:01.162Z,15.32
2022-10-30T20:03:27.927Z,14.60
2022-10-30T20:05:55.962Z,15.31
2022-10-30T20:08:24.283Z,14.26
2022-10-30T20:10:51.376Z,14.21
2022-10-30T20:13:18.994Z,14.25
2022-10-30T20:15:45.762Z,14.43
2022-10-30T20:18:28.773Z,14.43
2022-10-30T20:20:56.392Z,14.00
2022-10-30T20:23:23.692Z,14.41
2022-10-30T20:25:51.994Z,14.06
2022-10-30T20:28:21.615Z,14.22
2022-10-30T20:30:48.882Z,14.67
2022-10-30T20:33:15.958Z,14.94
2022-10-30T20:35:43.207Z,15.02
2022-10-30T20:38:15.223Z,15.06
2022-10-30T20:40:42.163Z,15.19
2022-10-30T20:43:10.652Z,15.24
2022-10-30T20:45:37.326Z,15.36
2022-10-30T20:48:04.136Z,15.55
2022-10-30T20:50:30.809Z,15.69
2022-10-30T20:52:57.482Z,15.71
2022-10-30T20:55:24.312Z,15.64
2022-10-30T20:57:51.114Z,14.80
2022-10-30T21:00:18.684Z,15.42
2022-10-30T21:02:45.433Z,15.61
2022-10-30T21:05:38.238Z,15.59
2022-10-30T21:07:59.158Z,15.68
2022-10-30T21:10:30.357Z,15.73
2022-10-30T21:12:58.990Z,15.81
2022-10-30T21:15:28.850Z,15.88
2022-10-30T21:17:55.551Z,15.93
2022-10-30T21:20:22.284Z,15.85
2022-10-30T21:22:48.985Z,15.98
2022-10-30T21:25:15.883Z,14.89
2022-10-30T21:27:42.673Z,15.52
2022-10-30T21:30:10.041Z,15.50
2022-10-30T21:32:36.841Z,15.02
2022-10-30T21:35:03.583Z,15.13
2022-10-30T21:37:34.095Z,15.26
2022-10-30T21:40:00.793Z,14.67
2022-10-30T21:44:55.094Z,14.49
2022-10-30T21:47:21.953Z,14.94
2022-10-30T21:49:48.673Z,15.38
2022-10-30T21:52:15.344Z,15.31
2022-10-30T21:54:42.042Z,15.41
2022-10-30T21:59:40.382Z,15.60
2022-10-30T22:02:07.252Z,15.72
2022-10-30T22:04:34.977Z,15.50
2022-10-30T22:07:01.665Z,14.61
2022-10-30T22:09:28.372Z,14.86
2022-10-30T22:11:55.025Z,14.94
2022-10-30T22:14:21.722Z,14.52
2022-10-30T22:16:48.653Z,14.20
2022-10-30T22:19:15.419Z,14.28
2022-10-30T22:21:42.192Z,13.83
2022-10-30T22:24:09.039Z,13.89
2022-10-30T22:26:35.793Z,14.45
2022-10-30T22:29:02.740Z,14.26
2022-10-30T22:31:30.223Z,14.22
2022-10-30T22:33:58.852Z,14.61
2022-10-30T22:36:26.913Z,14.38
2022-10-30T22:39:04.563Z,14.31
2022-10-30T22:41:34.748Z,14.38
2022-10-30T22:44:08.179Z,14.00
2022-10-30T22:46:35.825Z,13.90
2022-10-30T22:49:02.584Z,14.42
2022-10-30T22:51:31.473Z,14.70
2022-10-30T22:53:59.659Z,14.07
2022-10-30T22:56:27.542Z,14.37
2022-10-30T22:58:54.663Z,14.13
2022-10-30T23:01:28.518Z,13.86
2022-10-30T23:03:56.214Z,14.28
2022-10-30T23:06:22.921Z,13.85
2022-10-30T23:08:49.663Z,14.12
2022-10-30T23:11:16.361Z,14.14
2022-10-30T23:13:43.274Z,14.18
2022-10-30T23:16:13.273Z,13.57
2022-10-30T23:18:40.082Z,14.28
2022-10-30T23:21:08.142Z,14.26
2022-10-30T23:23:36.303Z,14.52
2022-10-30T23:26:08.313Z,14.78
2022-10-30T23:28:35.103Z,14.76
2022-10-30T23:31:03.898Z,14.75
2022-10-30T23:33:30.593Z,15.00
2022-10-30T23:36:00.553Z,15.07
2022-10-30T23:38:27.273Z,15.14
2022-10-30T23:40:53.979Z,15.07
2022-10-30T23:43:20.964Z,14.15
2022-10-30T23:45:47.718Z,14.54
2022-10-30T23:48:14.383Z,14.30
2022-10-30T23:50:41.135Z,14.40
2022-10-30T23:53:07.774Z,14.60
2022-10-30T23:55:34.426Z,14.75
2022-10-30T23:58:01.396Z,14.86
